Погода Ла-Серенана 2 недели

Кокимбо, Чили

03 - 15 марта
  • 03марта
    Сегодня
    +14°
    +21°
    Облачно с прояснениями
    ВремяПогодаТемператураВлажностьДавлениеВетер, м/сВероятность осадков
    00:00Облачно с прояснениями+17°C86 %758 мм1.8 м/с5 %
    03:00Облачно с прояснениями+16°C92 %757 мм2.2 м/с5 %
    06:00Облачно с прояснениями+16°C92 %758 мм2.2 м/с5 %
    09:00Облачно с прояснениями+17°C84 %759 мм2.1 м/с5 %
    12:00Облачно с прояснениями+19°C64 %760 мм5.2 м/с5 %
    15:00Облачно с прояснениями+20°C61 %759 мм5.7 м/с5 %
    18:00Облачно с прояснениями+20°C65 %758 мм5.3 м/с5 %
    21:00Облачно с прояснениями+18°C78 %758 мм3.7 м/с5 %
  • 04марта
    Понедельник
    +14°
    +21°
    Ясно и безоблачно
    ВремяПогодаТемператураВлажностьДавлениеВетер, м/сВероятность осадков
    00:00Облачно с прояснениями+16°C88 %758 мм1.7 м/с5 %
    03:00Ясно и безоблачно+16°C88 %758 мм1.9 м/с5 %
    06:00Ясно и безоблачно+16°C95 %757 мм2.0 м/с5 %
    09:00Практически безоблачно+16°C88 %758 мм1.9 м/с5 %
    12:00Ясно и безоблачно+19°C64 %758 мм4.8 м/с5 %
    15:00Ясно и безоблачно+20°C56 %758 мм5.9 м/с5 %
    18:00Ясно и безоблачно+20°C59 %757 мм6.0 м/с5 %
    21:00Ясно и безоблачно+17°C76 %757 мм3.9 м/с5 %
  • 05марта
    Вторник
    +15°
    +20°
    Ясно и безоблачно
    ВремяПогодаТемператураВлажностьДавлениеВетер, м/сВероятность осадков
    00:00Ясно и безоблачно+16°C88 %757 мм1.9 м/с5 %
    03:00Ясно и безоблачно+16°C89 %756 мм2.1 м/с5 %
    06:00Ясно и безоблачно+16°C88 %756 мм2.4 м/с5 %
    09:00Небольшая облачность+16°C87 %758 мм2.3 м/с5 %
    12:00Ясно и безоблачно+18°C63 %758 мм4.8 м/с5 %
    15:00Ясно и безоблачно+20°C57 %757 мм5.7 м/с5 %
    18:00Ясно и безоблачно+19°C60 %756 мм6.0 м/с5 %
    21:00Ясно и безоблачно+17°C77 %756 мм3.9 м/с5 %
  • 06марта
    Среда
    +15°
    +20°
    Ясно и безоблачно
    ВремяПогодаТемператураВлажностьДавлениеВетер, м/сВероятность осадков
    00:00Ясно и безоблачно+16°C85 %756 мм1.9 м/с5 %
    03:00Ясно и безоблачно+16°C93 %755 мм2.3 м/с5 %
    06:00Облачно с прояснениями+16°C94 %756 мм2.4 м/с4 %
    09:00Облачно с прояснениями+16°C87 %757 мм2.4 м/с5 %
    12:00Небольшая облачность+18°C63 %758 мм4.7 м/с3 %
    15:00Ясно и безоблачно+19°C58 %757 мм5.5 м/с6 %
    18:00Ясно и безоблачно+20°C61 %756 мм5.8 м/с5 %
    21:00Ясно и безоблачно+17°C77 %756 мм3.8 м/с5 %
Мы используем cookies
Соглашаюсь